Time;durP1;ratioP1;P1;durP2;ratioP2;P2;SDS_P1;SDS_P2;PMS_P1;PMS_P2;Temp;Humidity;BMP_temperature;BMP_pressure;BME280_temperature;BME280_humidity;BME280_pressure;Samples;Min_cycle;Max_cycle;Signal;HPM_P1;HPM_P2
2024/04/23 00:01:47;;;;;;;2.45;1.40;;;;;;;;;;5436550;26;20014;-80
2024/04/23 00:04:13;;;;;;;0.57;0.57;;;;;;;;;;5411081;26;19999;-80
2024/04/23 00:06:39;;;;;;;1.50;1.27;;;;;;;;;;5439504;26;20300;-80
2024/04/23 00:09:04;;;;;;;4.85;4.60;;;;;;;;;;5436823;26;19999;-78
2024/04/23 00:11:30;;;;;;;0.43;0.43;;;;;;;;;;5444763;26;20825;-79
2024/04/23 00:13:57;;;;;;;0.30;0.30;;;;;;;;;;5435704;26;20006;-79
2024/04/23 00:16:23;;;;;;;0.50;0.43;;;;;;;;;;5444167;26;20010;-80
2024/04/23 00:18:49;;;;;;;6.30;5.75;;;;;;;;;;5442970;26;19998;-80
2024/04/23 00:21:14;;;;;;;0.77;0.77;;;;;;;;;;5446649;26;20036;-79
2024/04/23 00:23:40;;;;;;;0.32;0.32;;;;;;;;;;5444635;26;20005;-79
2024/04/23 00:26:06;;;;;;;0.40;0.40;;;;;;;;;;5438028;26;19998;-79
2024/04/23 00:28:31;;;;;;;0.77;0.77;;;;;;;;;;5470972;26;19998;-77
2024/04/23 00:30:57;;;;;;;0.60;0.60;;;;;;;;;;5462508;26;20009;-79
2024/04/23 00:33:23;;;;;;;1.83;1.55;;;;;;;;;;5441020;26;19998;-78
2024/04/23 00:35:48;;;;;;;0.20;0.20;;;;;;;;;;5440139;26;20322;-79
2024/04/23 00:38:14;;;;;;;0.77;0.77;;;;;;;;;;5440871;26;19991;-80
2024/04/23 00:40:40;;;;;;;0.63;0.57;;;;;;;;;;5459033;26;20009;-79
2024/04/23 00:43:05;;;;;;;0.20;0.20;;;;;;;;;;5430154;26;20006;-80
2024/04/23 00:45:40;;;;;;;3.13;2.83;;;;;;;;;;5406591;26;20006;-80
2024/04/23 00:48:06;;;;;;;0.98;0.88;;;;;;;;;;5442377;26;20075;-79
2024/04/23 00:50:32;;;;;;;0.40;0.40;;;;;;;;;;5403854;26;20549;-79
2024/04/23 00:52:58;;;;;;;0.30;0.30;;;;;;;;;;5445201;26;20014;-79
2024/04/23 00:55:24;;;;;;;0.50;0.47;;;;;;;;;;5437502;26;20018;-78
2024/04/23 00:57:50;;;;;;;0.60;0.60;;;;;;;;;;5471416;26;20734;-78
2024/04/23 01:00:15;;;;;;;16.20;14.55;;;;;;;;;;5440249;26;20006;-79
2024/04/23 01:02:41;;;;;;;0.75;0.73;;;;;;;;;;5432042;26;20003;-81
2024/04/23 01:05:07;;;;;;;0.30;0.30;;;;;;;;;;5436301;26;20022;-79
2024/04/23 01:07:32;;;;;;;1.58;1.55;;;;;;;;;;5446128;26;20731;-80
2024/04/23 01:09:58;;;;;;;0.30;0.30;;;;;;;;;;5436627;26;20006;-78
2024/04/23 01:12:24;;;;;;;0.47;0.45;;;;;;;;;;5442286;26;20112;-79
2024/04/23 01:14:50;;;;;;;0.25;0.25;;;;;;;;;;5438005;26;20570;-77
2024/04/23 01:17:17;;;;;;;2.95;2.85;;;;;;;;;;5428370;26;20454;-77
2024/04/23 01:19:48;;;;;;;0.40;0.40;;;;;;;;;;5441290;26;19995;-76
2024/04/23 01:22:32;;;;;;;0.88;0.88;;;;;;;;;;5429756;26;20443;-79
2024/04/23 01:25:14;;;;;;;0.30;0.30;;;;;;;;;;5424810;26;20404;-80
2024/04/23 01:27:40;;;;;;;0.50;0.43;;;;;;;;;;5439180;26;19999;-78
2024/04/23 01:30:06;;;;;;;0.77;0.77;;;;;;;;;;5436946;26;20009;-79
2024/04/23 01:32:34;;;;;;;0.30;0.30;;;;;;;;;;5437437;26;19991;-79
2024/04/23 01:35:00;;;;;;;3.10;1.98;;;;;;;;;;5441500;26;19998;-80
2024/04/23 01:37:27;;;;;;;0.35;0.35;;;;;;;;;;5443038;26;20067;-78
2024/04/23 01:39:53;;;;;;;0.20;0.20;;;;;;;;;;5409235;26;20529;-78
2024/04/23 01:42:19;;;;;;;0.30;0.30;;;;;;;;;;5436663;26;20010;-77
2024/04/23 01:44:44;;;;;;;0.47;0.47;;;;;;;;;;5405695;26;20003;-79
2024/04/23 01:47:10;;;;;;;1.48;1.48;;;;;;;;;;5441396;26;20003;-79
2024/04/23 01:49:36;;;;;;;0.20;0.20;;;;;;;;;;5441086;26;20041;-78
2024/04/23 01:52:02;;;;;;;0.30;0.30;;;;;;;;;;5428352;26;20083;-77
2024/04/23 01:54:27;;;;;;;0.30;0.30;;;;;;;;;;5440862;26;20497;-79
2024/04/23 01:56:54;;;;;;;0.40;0.40;;;;;;;;;;5442161;26;20458;-79
2024/04/23 01:59:19;;;;;;;1.00;1.00;;;;;;;;;;5445871;26;19998;-78
2024/04/23 02:01:49;;;;;;;1.58;1.48;;;;;;;;;;5444645;26;20760;-81
2024/04/23 02:04:15;;;;;;;3.65;3.50;;;;;;;;;;5434580;26;20004;-79
2024/04/23 02:06:41;;;;;;;0.85;0.85;;;;;;;;;;5443694;26;19995;-80
2024/04/23 02:09:07;;;;;;;2.08;0.73;;;;;;;;;;5444234;26;20002;-77
2024/04/23 02:11:34;;;;;;;3.17;2.95;;;;;;;;;;5414697;26;20025;-79
2024/04/23 02:14:00;;;;;;;0.25;0.25;;;;;;;;;;5444303;26;20084;-79
2024/04/23 02:16:25;;;;;;;0.77;0.77;;;;;;;;;;5439120;26;20613;-80
2024/04/23 02:18:51;;;;;;;0.45;0.45;;;;;;;;;;5440321;26;20010;-79
2024/04/23 02:21:17;;;;;;;4.70;4.35;;;;;;;;;;5439156;26;20014;-81
2024/04/23 02:23:42;;;;;;;0.25;0.25;;;;;;;;;;5471900;26;20677;-80
2024/04/23 02:26:08;;;;;;;2.40;2.20;;;;;;;;;;5437674;26;20054;-79
2024/04/23 02:28:34;;;;;;;0.30;0.30;;;;;;;;;;5442757;26;20434;-78
2024/04/23 02:30:59;;;;;;;0.30;0.30;;;;;;;;;;5442767;26;19991;-79
2024/04/23 02:33:25;;;;;;;0.40;0.40;;;;;;;;;;5410867;26;19999;-78
2024/04/23 02:35:51;;;;;;;0.40;0.40;;;;;;;;;;5445306;26;20015;-80
2024/04/23 02:38:17;;;;;;;0.63;0.63;;;;;;;;;;5441122;26;20749;-80
2024/04/23 02:40:42;;;;;;;0.50;0.50;;;;;;;;;;5431809;26;20009;-82
2024/04/23 02:43:08;;;;;;;1.40;1.30;;;;;;;;;;5436446;26;19991;-80
2024/04/23 02:45:34;;;;;;;0.30;0.30;;;;;;;;;;5439234;26;19991;-81
2024/04/23 02:48:00;;;;;;;6.07;3.75;;;;;;;;;;5430328;26;20018;-81
2024/04/23 02:50:26;;;;;;;1.65;1.55;;;;;;;;;;5445350;26;20011;-81
2024/04/23 02:52:51;;;;;;;0.70;0.70;;;;;;;;;;5443461;26;20055;-78
2024/04/23 02:55:17;;;;;;;4.00;3.80;;;;;;;;;;5443732;26;20849;-80
2024/04/23 02:57:43;;;;;;;1.77;1.15;;;;;;;;;;5441794;26;20006;-81
2024/04/23 03:00:09;;;;;;;2.60;2.50;;;;;;;;;;5440484;26;20010;-81
2024/04/23 03:02:35;;;;;;;1.65;1.55;;;;;;;;;;5441696;26;20503;-81
2024/04/23 03:05:01;;;;;;;0.30;0.30;;;;;;;;;;5435684;26;20797;-81
2024/04/23 03:07:26;;;;;;;1.90;1.75;;;;;;;;;;5441381;26;20030;-79
2024/04/23 03:09:52;;;;;;;0.80;0.80;;;;;;;;;;5443220;26;20002;-81
2024/04/23 03:12:18;;;;;;;0.82;0.82;;;;;;;;;;5442297;26;20003;-79
2024/04/23 03:14:43;;;;;;;11.98;10.98;;;;;;;;;;5437106;26;19991;-79
2024/04/23 03:17:09;;;;;;;0.93;0.93;;;;;;;;;;5440628;26;20564;-81
2024/04/23 03:19:35;;;;;;;0.40;0.40;;;;;;;;;;5441758;26;20003;-79
2024/04/23 03:22:00;;;;;;;1.60;1.45;;;;;;;;;;5409278;26;20485;-79
2024/04/23 03:24:26;;;;;;;0.43;0.43;;;;;;;;;;5442476;26;20002;-81
2024/04/23 03:26:52;;;;;;;2.05;1.95;;;;;;;;;;5436642;26;19998;-80
2024/04/23 03:29:18;;;;;;;0.52;0.40;;;;;;;;;;5430116;26;20000;-79
2024/04/23 03:31:44;;;;;;;1.38;1.27;;;;;;;;;;5434105;26;20055;-79
2024/04/23 03:34:10;;;;;;;4.82;4.47;;;;;;;;;;5441385;26;20072;-82
2024/04/23 03:36:36;;;;;;;0.30;0.30;;;;;;;;;;5439619;26;19999;-80
2024/04/23 03:39:02;;;;;;;1.52;1.50;;;;;;;;;;5439615;26;20009;-80
2024/04/23 03:41:27;;;;;;;4.32;2.25;;;;;;;;;;5443468;26;20447;-79
2024/04/23 03:43:53;;;;;;;0.85;0.85;;;;;;;;;;5436158;26;20003;-80
2024/04/23 03:46:19;;;;;;;1.77;1.50;;;;;;;;;;5429299;26;20009;-80
2024/04/23 03:48:45;;;;;;;0.40;0.40;;;;;;;;;;5440753;26;20007;-81
2024/04/23 03:51:10;;;;;;;0.50;0.50;;;;;;;;;;5436027;26;20013;-80
2024/04/23 03:53:36;;;;;;;0.20;0.20;;;;;;;;;;5431575;26;20010;-85
2024/04/23 03:56:02;;;;;;;1.02;1.00;;;;;;;;;;5440862;26;20013;-84
2024/04/23 03:58:27;;;;;;;5.03;3.35;;;;;;;;;;5436845;26;20002;-81
2024/04/23 04:00:53;;;;;;;0.43;0.43;;;;;;;;;;5429524;26;20111;-82
2024/04/23 04:06:11;;;;;;;0.30;0.30;;;;;;;;;;5433167;26;20010;-83
2024/04/23 04:08:40;;;;;;;0.30;0.30;;;;;;;;;;5442050;26;19999;-82
2024/04/23 04:11:06;;;;;;;0.20;0.20;;;;;;;;;;5422975;26;20119;-81
2024/04/23 04:13:32;;;;;;;0.28;0.28;;;;;;;;;;5435468;26;20320;-82
2024/04/23 04:15:58;;;;;;;3.35;3.15;;;;;;;;;;5425425;26;19990;-82
2024/04/23 04:18:24;;;;;;;0.50;0.50;;;;;;;;;;5441475;26;20013;-82
2024/04/23 04:20:49;;;;;;;6.07;5.60;;;;;;;;;;5437618;26;20572;-82
2024/04/23 04:23:15;;;;;;;8.88;3.13;;;;;;;;;;5440097;26;20003;-80
2024/04/23 04:25:41;;;;;;;2.28;0.38;;;;;;;;;;5430362;26;20045;-83
2024/04/23 04:28:06;;;;;;;0.95;0.95;;;;;;;;;;5408759;26;20545;-83
2024/04/23 04:30:32;;;;;;;0.30;0.28;;;;;;;;;;5440037;26;20005;-82
2024/04/23 04:32:58;;;;;;;0.20;0.20;;;;;;;;;;5433754;26;20775;-83
2024/04/23 04:35:23;;;;;;;0.20;0.20;;;;;;;;;;5435238;26;20010;-85
2024/04/23 04:37:49;;;;;;;0.40;0.40;;;;;;;;;;5435641;26;20014;-81
2024/04/23 04:40:15;;;;;;;0.30;0.30;;;;;;;;;;5432542;26;20025;-81
2024/04/23 04:42:40;;;;;;;1.77;1.67;;;;;;;;;;5431836;26;20006;-83
2024/04/23 04:45:06;;;;;;;0.90;0.85;;;;;;;;;;5460728;26;20017;-81
2024/04/23 04:47:33;;;;;;;2.28;2.15;;;;;;;;;;5426016;26;20010;-81
2024/04/23 04:49:59;;;;;;;1.15;1.08;;;;;;;;;;5442624;26;20001;-76
2024/04/23 04:52:24;;;;;;;0.30;0.30;;;;;;;;;;5430958;26;20376;-78
2024/04/23 04:54:50;;;;;;;2.92;2.83;;;;;;;;;;5430390;26;19999;-77
2024/04/23 04:57:16;;;;;;;4.55;2.33;;;;;;;;;;5466897;26;20457;-78
2024/04/23 04:59:41;;;;;;;5.47;3.90;;;;;;;;;;5419433;26;20153;-80
2024/04/23 05:02:07;;;;;;;0.43;0.40;;;;;;;;;;5428552;26;19999;-79
2024/04/23 05:04:33;;;;;;;0.50;0.50;;;;;;;;;;5402423;26;20018;-79
2024/04/23 05:07:00;;;;;;;1.02;0.93;;;;;;;;;;5435706;26;20014;-78
2024/04/23 05:09:26;;;;;;;0.30;0.30;;;;;;;;;;5441601;26;20003;-80
2024/04/23 05:11:52;;;;;;;0.40;0.40;;;;;;;;;;5442846;26;19987;-79
2024/04/23 05:14:19;;;;;;;0.20;0.20;;;;;;;;;;5439957;26;20338;-78
2024/04/23 05:16:45;;;;;;;0.30;0.30;;;;;;;;;;5428392;26;20014;-78
2024/04/23 05:19:11;;;;;;;0.40;0.40;;;;;;;;;;5436367;26;19999;-78
2024/04/23 05:21:36;;;;;;;2.80;2.60;;;;;;;;;;5408927;26;20010;-81
2024/04/23 05:24:02;;;;;;;0.45;0.45;;;;;;;;;;5434063;26;20494;-81
2024/04/23 05:26:28;;;;;;;0.68;0.63;;;;;;;;;;5434005;26;20323;-83
2024/04/23 05:28:54;;;;;;;0.25;0.25;;;;;;;;;;5432962;26;19999;-84
2024/04/23 05:34:04;;;;;;;0.38;0.38;;;;;;;;;;5427148;26;20010;-77
2024/04/23 05:36:29;;;;;;;0.30;0.30;;;;;;;;;;5436457;26;20007;-84
2024/04/23 05:38:55;;;;;;;2.40;1.95;;;;;;;;;;5431944;26;19995;-79
2024/04/23 05:41:20;;;;;;;0.40;0.40;;;;;;;;;;5423355;26;20010;-83
2024/04/23 05:43:46;;;;;;;8.95;5.35;;;;;;;;;;5440148;26;20336;-79
2024/04/23 05:46:12;;;;;;;0.47;0.47;;;;;;;;;;5433752;26;20019;-83
2024/04/23 05:48:56;;;;;;;1.75;1.60;;;;;;;;;;5431604;26;20051;-82
2024/04/23 05:51:41;;;;;;;0.30;0.30;;;;;;;;;;5435015;26;20006;-83
2024/04/23 05:54:25;;;;;;;3.15;2.85;;;;;;;;;;5430593;26;20044;-81
2024/04/23 05:56:51;;;;;;;1.15;1.13;;;;;;;;;;5424751;26;20084;-79
2024/04/23 05:59:17;;;;;;;0.43;0.43;;;;;;;;;;5400630;26;20079;-83
2024/04/23 06:01:43;;;;;;;0.30;0.30;;;;;;;;;;5434304;26;20015;-82
2024/04/23 06:04:08;;;;;;;0.25;0.25;;;;;;;;;;5427448;26;20004;-83
2024/04/23 06:06:34;;;;;;;2.15;2.05;;;;;;;;;;5405803;26;19999;-83
2024/04/23 06:09:00;;;;;;;0.57;0.57;;;;;;;;;;5432124;26;19999;-83
2024/04/23 06:11:25;;;;;;;0.73;0.73;;;;;;;;;;5437564;26;20556;-82
2024/04/23 06:14:04;;;;;;;0.30;0.30;;;;;;;;;;5433172;26;19999;-85
2024/04/23 06:16:30;;;;;;;1.08;1.08;;;;;;;;;;5429616;26;20027;-83
2024/04/23 06:18:56;;;;;;;4.07;3.42;;;;;;;;;;5398261;26;19999;-81
2024/04/23 06:21:21;;;;;;;0.30;0.30;;;;;;;;;;5433447;26;20342;-83
2024/04/23 06:23:47;;;;;;;1.45;1.45;;;;;;;;;;5435223;26;19995;-84
2024/04/23 06:26:13;;;;;;;0.57;0.57;;;;;;;;;;5430686;26;20004;-83
2024/04/23 06:28:39;;;;;;;0.30;0.30;;;;;;;;;;5432559;26;20556;-83
2024/04/23 06:31:09;;;;;;;0.43;0.43;;;;;;;;;;5422746;26;19999;-84
2024/04/23 06:33:35;;;;;;;0.30;0.30;;;;;;;;;;5428453;26;20017;-84
2024/04/23 06:36:01;;;;;;;0.30;0.30;;;;;;;;;;5432572;26;20010;-83
2024/04/23 06:38:26;;;;;;;15.98;4.00;;;;;;;;;;5438094;26;19999;-84
2024/04/23 06:40:52;;;;;;;1.20;1.20;;;;;;;;;;5437040;26;20002;-82
2024/04/23 06:43:18;;;;;;;5.05;3.03;;;;;;;;;;5440153;26;20006;-83
2024/04/23 06:45:43;;;;;;;0.40;0.40;;;;;;;;;;5432608;26;20280;-83
2024/04/23 06:48:13;;;;;;;0.57;0.57;;;;;;;;;;5439357;26;19995;-83
2024/04/23 06:50:39;;;;;;;0.50;0.50;;;;;;;;;;5436022;26;20343;-84
2024/04/23 06:53:05;;;;;;;2.70;2.03;;;;;;;;;;5435097;26;20067;-82
2024/04/23 06:55:30;;;;;;;0.30;0.30;;;;;;;;;;5409749;26;20003;-81
2024/04/23 06:57:57;;;;;;;0.30;0.30;;;;;;;;;;5443027;26;20003;-84
2024/04/23 07:00:22;;;;;;;0.30;0.30;;;;;;;;;;5441700;26;20103;-83
2024/04/23 07:02:48;;;;;;;0.40;0.40;;;;;;;;;;5473806;26;20006;-81
2024/04/23 07:05:14;;;;;;;0.75;0.75;;;;;;;;;;5427842;26;20409;-83
2024/04/23 07:07:39;;;;;;;0.30;0.30;;;;;;;;;;5437532;26;20517;-84
2024/04/23 07:10:06;;;;;;;0.30;0.30;;;;;;;;;;5434388;26;20007;-82
2024/04/23 07:12:32;;;;;;;2.50;2.40;;;;;;;;;;5440017;26;20002;-83
2024/04/23 07:14:58;;;;;;;3.58;2.00;;;;;;;;;;5441339;26;19991;-83
2024/04/23 07:17:23;;;;;;;2.00;1.73;;;;;;;;;;5441600;26;20079;-84
2024/04/23 07:19:49;;;;;;;0.20;0.20;;;;;;;;;;5444514;26;20431;-84
2024/04/23 07:22:15;;;;;;;2.00;1.90;;;;;;;;;;5430240;26;20326;-82
2024/04/23 07:24:42;;;;;;;0.25;0.25;;;;;;;;;;5433707;26;20002;-85
2024/04/23 07:27:08;;;;;;;2.65;2.00;;;;;;;;;;5423631;26;20002;-83
2024/04/23 07:29:33;;;;;;;0.20;0.20;;;;;;;;;;5430552;26;20437;-84
2024/04/23 07:31:59;;;;;;;0.82;0.80;;;;;;;;;;5443504;26;19995;-84
2024/04/23 07:34:25;;;;;;;0.30;0.30;;;;;;;;;;5426627;26;20002;-84
2024/04/23 07:36:50;;;;;;;0.90;0.90;;;;;;;;;;5433934;26;20303;-84
2024/04/23 07:39:16;;;;;;;0.75;0.75;;;;;;;;;;5437375;26;20459;-85
2024/04/23 07:41:42;;;;;;;0.30;0.30;;;;;;;;;;5437666;26;20002;-81
2024/04/23 07:44:07;;;;;;;2.35;2.22;;;;;;;;;;5426682;26;20435;-84
2024/04/23 07:46:33;;;;;;;2.38;2.17;;;;;;;;;;5437179;26;20447;-83
2024/04/23 07:48:59;;;;;;;7.43;1.33;;;;;;;;;;5438745;26;19998;-85
2024/04/23 07:51:25;;;;;;;0.35;0.35;;;;;;;;;;5409256;26;20006;-81
2024/04/23 07:53:50;;;;;;;0.30;0.30;;;;;;;;;;5440520;26;20019;-80
2024/04/23 07:56:18;;;;;;;2.25;1.60;;;;;;;;;;5437740;26;20108;-83
2024/04/23 07:58:44;;;;;;;0.60;0.60;;;;;;;;;;5430018;26;20005;-84
2024/04/23 08:01:09;;;;;;;0.30;0.30;;;;;;;;;;5438398;26;20019;-83
2024/04/23 08:03:35;;;;;;;0.20;0.20;;;;;;;;;;5440132;26;19987;-84
2024/04/23 08:06:02;;;;;;;0.90;0.90;;;;;;;;;;5441169;26;20464;-84
2024/04/23 08:08:28;;;;;;;1.85;1.75;;;;;;;;;;5441955;26;19994;-84
2024/04/23 08:10:53;;;;;;;1.00;1.00;;;;;;;;;;5425852;26;20079;-83
2024/04/23 08:13:19;;;;;;;1.02;0.98;;;;;;;;;;5411348;26;20010;-83
2024/04/23 08:15:45;;;;;;;1.00;0.93;;;;;;;;;;5417463;26;19999;-81
2024/04/23 08:18:11;;;;;;;0.88;0.82;;;;;;;;;;5439497;26;20011;-82
2024/04/23 08:20:36;;;;;;;3.22;3.03;;;;;;;;;;5432183;26;20010;-82
2024/04/23 08:23:02;;;;;;;1.23;1.00;;;;;;;;;;5441900;26;20005;-83
2024/04/23 08:25:28;;;;;;;0.30;0.30;;;;;;;;;;5437228;26;20035;-83
2024/04/23 08:27:53;;;;;;;0.40;0.40;;;;;;;;;;5437297;26;20003;-84
2024/04/23 08:30:21;;;;;;;3.92;2.53;;;;;;;;;;5434893;26;20029;-83
2024/04/23 08:32:46;;;;;;;1.17;1.10;;;;;;;;;;5439477;26;20512;-81
2024/04/23 08:35:12;;;;;;;0.30;0.30;;;;;;;;;;5395397;26;20032;-83
2024/04/23 08:37:38;;;;;;;1.05;0.80;;;;;;;;;;5430499;26;20045;-84
2024/04/23 08:40:04;;;;;;;4.63;4.18;;;;;;;;;;5398550;26;20142;-85
2024/04/23 08:42:34;;;;;;;7.30;2.67;;;;;;;;;;5434788;26;20067;-79
2024/04/23 08:45:00;;;;;;;2.20;2.00;;;;;;;;;;5433863;26;20002;-84
2024/04/23 08:47:26;;;;;;;4.22;3.35;;;;;;;;;;5431973;26;19999;-81
2024/04/23 08:49:52;;;;;;;1.90;1.80;;;;;;;;;;5430799;26;20028;-85
2024/04/23 08:52:18;;;;;;;0.20;0.20;;;;;;;;;;5439985;26;19995;-83
2024/04/23 08:54:44;;;;;;;0.45;0.45;;;;;;;;;;5447436;26;20971;-83
2024/04/23 08:57:13;;;;;;;1.00;0.90;;;;;;;;;;5450137;26;19991;-79
2024/04/23 08:59:39;;;;;;;0.63;0.50;;;;;;;;;;5407521;26;20005;-83
2024/04/23 09:02:04;;;;;;;1.35;1.27;;;;;;;;;;5431320;26;20011;-84
2024/04/23 09:04:31;;;;;;;0.30;0.30;;;;;;;;;;5459140;26;20010;-84
2024/04/23 09:06:57;;;;;;;0.47;0.47;;;;;;;;;;5442034;26;19999;-83
2024/04/23 09:09:25;;;;;;;1.77;1.48;;;;;;;;;;5437114;26;20271;-80
2024/04/23 09:11:51;;;;;;;0.40;0.40;;;;;;;;;;5439526;26;20013;-81
2024/04/23 09:14:17;;;;;;;2.78;1.83;;;;;;;;;;5439823;26;20079;-80
2024/04/23 09:16:43;;;;;;;15.40;14.73;;;;;;;;;;5441259;26;20518;-83
2024/04/23 09:19:09;;;;;;;2.88;2.30;;;;;;;;;;5438143;26;19995;-85
2024/04/23 09:21:35;;;;;;;0.52;0.52;;;;;;;;;;5433962;26;20607;-87
2024/04/23 09:24:02;;;;;;;1.75;1.65;;;;;;;;;;5439868;26;20014;-82
2024/04/23 09:26:28;;;;;;;0.20;0.20;;;;;;;;;;5419614;26;19998;-85
2024/04/23 09:28:55;;;;;;;1.42;1.33;;;;;;;;;;5430566;26;20133;-85
2024/04/23 09:31:21;;;;;;;0.30;0.30;;;;;;;;;;5430906;26;19998;-85
2024/04/23 09:33:53;;;;;;;0.20;0.20;;;;;;;;;;5436443;26;20030;-83
2024/04/23 09:36:23;;;;;;;0.40;0.40;;;;;;;;;;5427996;26;20017;-81
2024/04/23 09:38:51;;;;;;;1.33;1.15;;;;;;;;;;5438382;26;20325;-82
2024/04/23 09:41:17;;;;;;;0.38;0.38;;;;;;;;;;5434487;26;20553;-82
2024/04/23 09:43:51;;;;;;;0.73;0.73;;;;;;;;;;5440842;26;20001;-81
2024/04/23 09:46:18;;;;;;;0.17;0.17;;;;;;;;;;5464728;26;20006;-81
2024/04/23 09:48:44;;;;;;;0.40;0.32;;;;;;;;;;5438911;26;19994;-84
2024/04/23 09:51:10;;;;;;;1.15;0.90;;;;;;;;;;5436108;26;20003;-82
2024/04/23 09:53:36;;;;;;;3.05;2.25;;;;;;;;;;5422190;26;19999;-82
2024/04/23 09:56:03;;;;;;;1.35;1.25;;;;;;;;;;5438110;26;19995;-85
2024/04/23 09:58:29;;;;;;;1.20;0.98;;;;;;;;;;5405014;26;20635;-84
2024/04/23 10:00:56;;;;;;;1.38;1.10;;;;;;;;;;5437415;26;20158;-84
2024/04/23 10:03:23;;;;;;;3.28;1.35;;;;;;;;;;5434442;26;20053;-82
2024/04/23 10:05:50;;;;;;;2.75;1.58;;;;;;;;;;5429480;26;20409;-81
2024/04/23 10:08:30;;;;;;;0.20;0.20;;;;;;;;;;5437643;26;20007;-83
2024/04/23 10:10:56;;;;;;;1.30;1.20;;;;;;;;;;5427383;26;20047;-80
2024/04/23 10:13:26;;;;;;;0.40;0.40;;;;;;;;;;5437929;26;20419;-81
2024/04/23 10:15:55;;;;;;;2.97;1.33;;;;;;;;;;5409013;26;19999;-83
2024/04/23 10:18:28;;;;;;;0.20;0.20;;;;;;;;;;5439605;26;20100;-83
2024/04/23 10:20:55;;;;;;;0.40;0.40;;;;;;;;;;5438040;26;19999;-84
2024/04/23 10:23:21;;;;;;;2.75;2.53;;;;;;;;;;5442926;26;20296;-85
2024/04/23 10:25:48;;;;;;;0.20;0.20;;;;;;;;;;5436624;26;20035;-84
2024/04/23 10:28:14;;;;;;;4.05;3.63;;;;;;;;;;5441086;26;20487;-82
2024/04/23 10:30:40;;;;;;;0.73;0.68;;;;;;;;;;5441736;26;20007;-81
2024/04/23 10:33:07;;;;;;;5.20;1.63;;;;;;;;;;5438619;26;20014;-82
2024/04/23 10:35:33;;;;;;;1.95;1.85;;;;;;;;;;5433312;26;20450;-81
2024/04/23 10:38:00;;;;;;;1.80;1.67;;;;;;;;;;5428522;26;20017;-84
2024/04/23 10:40:27;;;;;;;1.50;1.40;;;;;;;;;;5439624;26;20431;-84
2024/04/23 10:42:52;;;;;;;0.20;0.20;;;;;;;;;;5441884;26;20326;-84
2024/04/23 10:45:20;;;;;;;4.13;2.55;;;;;;;;;;5442559;26;20023;-83
2024/04/23 10:47:52;;;;;;;0.57;0.40;;;;;;;;;;5436321;26;20014;-84
2024/04/23 10:50:28;;;;;;;3.67;2.80;;;;;;;;;;5406255;26;20394;-82
2024/04/23 10:52:59;;;;;;;0.30;0.30;;;;;;;;;;5427246;26;20031;-84
2024/04/23 10:55:25;;;;;;;1.67;1.52;;;;;;;;;;5405631;26;19999;-84
2024/04/23 10:57:51;;;;;;;1.88;1.23;;;;;;;;;;5437738;26;20082;-83
2024/04/23 11:00:16;;;;;;;2.42;2.13;;;;;;;;;;5433589;26;19999;-82
2024/04/23 11:02:42;;;;;;;1.00;1.00;;;;;;;;;;5459705;26;20013;-85
2024/04/23 11:05:17;;;;;;;2.67;2.25;;;;;;;;;;5427755;26;20447;-85
2024/04/23 11:07:50;;;;;;;2.60;2.13;;;;;;;;;;5406664;26;20043;-85
2024/04/23 11:10:19;;;;;;;2.97;2.22;;;;;;;;;;5405365;26;19995;-80
2024/04/23 11:12:45;;;;;;;1.77;1.58;;;;;;;;;;5441768;26;19998;-86
2024/04/23 11:15:18;;;;;;;0.25;0.25;;;;;;;;;;5441551;26;20021;-85
2024/04/23 11:17:44;;;;;;;1.90;1.77;;;;;;;;;;5445233;26;20331;-84
2024/04/23 11:20:10;;;;;;;3.83;3.63;;;;;;;;;;5436153;26;19995;-85
2024/04/23 11:22:36;;;;;;;0.47;0.47;;;;;;;;;;5460237;26;20448;-85
2024/04/23 11:25:06;;;;;;;4.05;2.80;;;;;;;;;;5402277;26;19999;-86
2024/04/23 11:27:32;;;;;;;0.40;0.40;;;;;;;;;;5438597;26;20010;-84
2024/04/23 11:29:58;;;;;;;0.40;0.40;;;;;;;;;;5422662;26;20040;-84
2024/04/23 11:32:24;;;;;;;2.60;0.98;;;;;;;;;;5443452;26;20076;-84
2024/04/23 11:34:50;;;;;;;1.15;1.02;;;;;;;;;;5465939;26;20014;-86
2024/04/23 11:37:22;;;;;;;0.30;0.30;;;;;;;;;;5428971;26;20740;-84
2024/04/23 11:39:53;;;;;;;2.05;1.95;;;;;;;;;;5457222;26;19991;-85
2024/04/23 11:42:22;;;;;;;0.30;0.30;;;;;;;;;;5440225;26;20014;-85
2024/04/23 11:44:48;;;;;;;1.15;1.05;;;;;;;;;;5436673;26;20020;-87
2024/04/23 11:47:13;;;;;;;1.63;1.08;;;;;;;;;;5454512;26;20002;-85
2024/04/23 11:49:39;;;;;;;2.72;2.38;;;;;;;;;;5435931;26;19996;-85
2024/04/23 11:52:05;;;;;;;0.45;0.45;;;;;;;;;;5427877;26;20787;-85
2024/04/23 11:54:31;;;;;;;1.48;1.38;;;;;;;;;;5439929;26;20002;-81
2024/04/23 11:56:56;;;;;;;0.30;0.30;;;;;;;;;;5438749;26;19995;-81
2024/04/23 11:59:25;;;;;;;1.75;1.60;;;;;;;;;;5441374;26;20002;-84
2024/04/23 12:01:51;;;;;;;2.13;1.98;;;;;;;;;;5430222;26;20006;-84
2024/04/23 12:04:17;;;;;;;0.45;0.45;;;;;;;;;;5440362;26;20052;-82
2024/04/23 12:06:47;;;;;;;2.15;2.03;;;;;;;;;;5443062;26;20013;-83
2024/04/23 12:09:13;;;;;;;1.58;1.45;;;;;;;;;;5429417;26;20353;-84
2024/04/23 12:11:39;;;;;;;1.33;1.23;;;;;;;;;;5445607;26;20006;-85
2024/04/23 12:14:13;;;;;;;1.70;1.60;;;;;;;;;;5462560;26;20048;-84
2024/04/23 12:16:42;;;;;;;0.20;0.20;;;;;;;;;;5443048;26;20329;-86
2024/04/23 12:19:08;;;;;;;1.52;1.38;;;;;;;;;;5432903;26;19999;-81
2024/04/23 12:21:34;;;;;;;2.88;2.00;;;;;;;;;;5449268;26;20010;-82
2024/04/23 12:24:00;;;;;;;2.50;2.03;;;;;;;;;;5448360;26;20011;-82
2024/04/23 12:26:26;;;;;;;1.45;1.35;;;;;;;;;;5439429;26;19998;-84
2024/04/23 12:28:53;;;;;;;0.75;0.75;;;;;;;;;;5437866;26;20431;-83
2024/04/23 12:31:19;;;;;;;0.30;0.30;;;;;;;;;;5435137;26;20549;-85
2024/04/23 12:33:45;;;;;;;3.60;1.38;;;;;;;;;;5435456;26;19999;-85
2024/04/23 12:36:11;;;;;;;2.20;2.00;;;;;;;;;;5440337;26;20006;-84
2024/04/23 12:38:41;;;;;;;0.20;0.20;;;;;;;;;;5440803;26;20704;-85
2024/04/23 12:41:07;;;;;;;0.68;0.68;;;;;;;;;;5436644;26;20027;-85
2024/04/23 12:43:32;;;;;;;0.43;0.40;;;;;;;;;;5440296;26;20003;-84
2024/04/23 12:45:58;;;;;;;0.30;0.30;;;;;;;;;;5433554;26;20009;-80
2024/04/23 12:48:24;;;;;;;1.50;1.17;;;;;;;;;;5434757;26;20384;-85
2024/04/23 12:50:49;;;;;;;1.40;1.23;;;;;;;;;;5456796;26;20017;-84
2024/04/23 12:53:18;;;;;;;2.40;1.83;;;;;;;;;;5440193;26;20010;-85
2024/04/23 12:55:44;;;;;;;32.08;2.50;;;;;;;;;;5438820;26;20058;-86
2024/04/23 12:58:10;;;;;;;2.15;1.05;;;;;;;;;;5440344;26;20325;-87
2024/04/23 13:00:35;;;;;;;1.48;1.38;;;;;;;;;;5439939;26;19999;-86
2024/04/23 13:03:01;;;;;;;0.20;0.20;;;;;;;;;;5434187;26;20007;-85
2024/04/23 13:05:27;;;;;;;0.50;0.50;;;;;;;;;;5438852;26;19998;-81
2024/04/23 13:07:52;;;;;;;7.03;2.50;;;;;;;;;;5433669;26;20039;-82
2024/04/23 13:10:18;;;;;;;0.95;0.90;;;;;;;;;;5380804;26;20005;-82
2024/04/23 13:12:44;;;;;;;2.60;2.20;;;;;;;;;;5445808;26;19995;-82
2024/04/23 13:15:10;;;;;;;0.73;0.73;;;;;;;;;;5449205;26;20002;-80
2024/04/23 13:17:36;;;;;;;0.98;0.85;;;;;;;;;;5445374;26;20014;-79
2024/04/23 13:20:02;;;;;;;1.08;0.98;;;;;;;;;;5457080;26;20446;-82
2024/04/23 13:22:27;;;;;;;2.33;1.90;;;;;;;;;;5450825;26;20671;-82
2024/04/23 13:24:53;;;;;;;1.58;1.08;;;;;;;;;;5443007;26;20097;-83
2024/04/23 13:27:19;;;;;;;1.58;1.40;;;;;;;;;;5459700;26;20010;-82
2024/04/23 13:29:46;;;;;;;1.80;1.70;;;;;;;;;;5454920;26;19995;-82
2024/04/23 13:32:12;;;;;;;0.75;0.65;;;;;;;;;;5434380;26;20000;-85
2024/04/23 13:34:38;;;;;;;4.82;2.40;;;;;;;;;;5468807;26;20357;-86
2024/04/23 13:37:04;;;;;;;1.00;0.98;;;;;;;;;;5443096;26;19999;-85
2024/04/23 13:39:30;;;;;;;0.70;0.70;;;;;;;;;;5435804;26;20013;-83
2024/04/23 13:41:56;;;;;;;7.30;1.77;;;;;;;;;;5436103;26;20023;-86
2024/04/23 13:44:22;;;;;;;3.35;2.03;;;;;;;;;;5428069;26;20022;-86
2024/04/23 13:46:47;;;;;;;2.65;2.45;;;;;;;;;;5438893;26;20010;-85
2024/04/23 13:49:16;;;;;;;1.65;1.55;;;;;;;;;;5432560;26;20017;-86
2024/04/23 13:51:42;;;;;;;1.48;1.38;;;;;;;;;;5442535;26;19998;-88
2024/04/23 13:54:08;;;;;;;1.50;1.40;;;;;;;;;;5405595;26;19999;-83
2024/04/23 13:56:33;;;;;;;2.00;1.30;;;;;;;;;;5468324;26;20003;-84
2024/04/23 13:58:59;;;;;;;0.90;0.90;;;;;;;;;;5416716;26;20002;-85
2024/04/23 14:01:25;;;;;;;1.48;1.38;;;;;;;;;;5437835;26;20052;-83
2024/04/23 14:03:51;;;;;;;4.75;2.25;;;;;;;;;;5433880;26;20011;-84
2024/04/23 14:06:16;;;;;;;1.15;1.05;;;;;;;;;;5439068;26;20017;-85
2024/04/23 14:08:42;;;;;;;1.95;1.60;;;;;;;;;;5432395;26;20003;-84
2024/04/23 14:11:08;;;;;;;1.70;1.58;;;;;;;;;;5444280;26;19991;-84
2024/04/23 14:13:34;;;;;;;1.17;1.00;;;;;;;;;;5441641;26;20006;-85
2024/04/23 14:16:06;;;;;;;0.35;0.35;;;;;;;;;;5443726;26;20711;-86
2024/04/23 14:18:32;;;;;;;3.10;1.77;;;;;;;;;;5447194;26;20005;-86
2024/04/23 14:21:00;;;;;;;2.20;2.08;;;;;;;;;;5441422;26;20063;-83
2024/04/23 14:23:30;;;;;;;1.30;1.08;;;;;;;;;;5444031;26;20011;-83
2024/04/23 14:25:56;;;;;;;1.80;1.70;;;;;;;;;;5439340;26;20511;-85
2024/04/23 14:28:22;;;;;;;1.52;0.93;;;;;;;;;;5429579;26;19995;-85
2024/04/23 14:30:47;;;;;;;6.65;1.77;;;;;;;;;;5415687;26;20007;-84
2024/04/23 14:33:13;;;;;;;0.80;0.65;;;;;;;;;;5430041;26;20017;-85
2024/04/23 14:35:39;;;;;;;1.20;1.15;;;;;;;;;;5445914;26;19987;-86
2024/04/23 14:38:05;;;;;;;0.30;0.30;;;;;;;;;;5446073;26;20125;-84
2024/04/23 14:40:30;;;;;;;12.13;2.42;;;;;;;;;;5437413;26;20605;-82
2024/04/23 14:42:56;;;;;;;0.30;0.30;;;;;;;;;;5424755;26;20342;-83
2024/04/23 14:45:22;;;;;;;2.05;1.73;;;;;;;;;;5431338;26;20013;-85